sensor_id;sensor_type;location;lat;lon;timestamp;temperature;humidity
40960;DHT22;27842;52.272;8.052;2023-04-08T00:00:00;9.40;75.50
40960;DHT22;27842;52.272;8.052;2023-04-08T00:02:26;9.40;75.40
40960;DHT22;27842;52.272;8.052;2023-04-08T00:04:52;9.40;75.50
40960;DHT22;27842;52.272;8.052;2023-04-08T00:07:17;9.40;75.50
40960;DHT22;27842;52.272;8.052;2023-04-08T00:09:43;9.40;76.20
40960;DHT22;27842;52.272;8.052;2023-04-08T00:12:08;9.40;75.60
40960;DHT22;27842;52.272;8.052;2023-04-08T00:14:34;9.30;75.60
40960;DHT22;27842;52.272;8.052;2023-04-08T00:17:00;9.30;75.80
40960;DHT22;27842;52.272;8.052;2023-04-08T00:19:25;9.30;75.80
40960;DHT22;27842;52.272;8.052;2023-04-08T00:21:51;9.30;75.90
40960;DHT22;27842;52.272;8.052;2023-04-08T00:24:17;9.20;76.00
40960;DHT22;27842;52.272;8.052;2023-04-08T00:26:43;9.20;76.30
40960;DHT22;27842;52.272;8.052;2023-04-08T00:29:08;9.20;76.40
40960;DHT22;27842;52.272;8.052;2023-04-08T00:31:35;9.20;76.40
40960;DHT22;27842;52.272;8.052;2023-04-08T00:34:01;9.10;76.50
40960;DHT22;27842;52.272;8.052;2023-04-08T00:36:26;9.10;76.60
40960;DHT22;27842;52.272;8.052;2023-04-08T00:38:52;9.10;76.80
40960;DHT22;27842;52.272;8.052;2023-04-08T00:41:18;9.00;76.80
40960;DHT22;27842;52.272;8.052;2023-04-08T00:43:44;9.00;77.10
40960;DHT22;27842;52.272;8.052;2023-04-08T00:46:09;9.00;77.10
40960;DHT22;27842;52.272;8.052;2023-04-08T00:48:35;9.00;77.20
40960;DHT22;27842;52.272;8.052;2023-04-08T00:51:02;9.00;77.20
40960;DHT22;27842;52.272;8.052;2023-04-08T00:53:29;9.00;77.40
40960;DHT22;27842;52.272;8.052;2023-04-08T00:55:55;8.90;77.60
40960;DHT22;27842;52.272;8.052;2023-04-08T00:58:22;8.90;77.70
40960;DHT22;27842;52.272;8.052;2023-04-08T01:00:59;8.80;77.90
40960;DHT22;27842;52.272;8.052;2023-04-08T01:03:44;8.80;78.00
40960;DHT22;27842;52.272;8.052;2023-04-08T01:06:37;8.80;78.10
40960;DHT22;27842;52.272;8.052;2023-04-08T01:09:07;8.80;78.10
40960;DHT22;27842;52.272;8.052;2023-04-08T01:11:34;8.80;78.20
40960;DHT22;27842;52.272;8.052;2023-04-08T01:14:04;8.80;78.40
40960;DHT22;27842;52.272;8.052;2023-04-08T01:16:31;8.70;78.50
40960;DHT22;27842;52.272;8.052;2023-04-08T01:18:57;8.70;78.70
40960;DHT22;27842;52.272;8.052;2023-04-08T01:21:23;8.60;78.80
40960;DHT22;27842;52.272;8.052;2023-04-08T01:23:58;8.60;78.90
40960;DHT22;27842;52.272;8.052;2023-04-08T01:26:26;8.60;79.10
40960;DHT22;27842;52.272;8.052;2023-04-08T01:28:56;8.60;79.20
40960;DHT22;27842;52.272;8.052;2023-04-08T01:31:23;8.60;79.30
40960;DHT22;27842;52.272;8.052;2023-04-08T01:33:50;8.60;79.40
40960;DHT22;27842;52.272;8.052;2023-04-08T01:36:17;8.50;79.40
40960;DHT22;27842;52.272;8.052;2023-04-08T01:38:45;8.50;79.60
40960;DHT22;27842;52.272;8.052;2023-04-08T01:41:12;8.60;79.70
40960;DHT22;27842;52.272;8.052;2023-04-08T01:43:39;8.60;79.80
40960;DHT22;27842;52.272;8.052;2023-04-08T01:46:05;8.60;79.90
40960;DHT22;27842;52.272;8.052;2023-04-08T01:48:33;8.60;79.90
40960;DHT22;27842;52.272;8.052;2023-04-08T01:50:59;8.60;79.80
40960;DHT22;27842;52.272;8.052;2023-04-08T01:53:25;8.60;79.80
40960;DHT22;27842;52.272;8.052;2023-04-08T01:55:55;8.60;79.90
40960;DHT22;27842;52.272;8.052;2023-04-08T01:58:21;8.60;79.90
40960;DHT22;27842;52.272;8.052;2023-04-08T02:00:50;8.70;79.90
40960;DHT22;27842;52.272;8.052;2023-04-08T02:03:18;8.70;80.00
40960;DHT22;27842;52.272;8.052;2023-04-08T02:05:45;8.70;79.90
40960;DHT22;27842;52.272;8.052;2023-04-08T02:08:11;8.70;80.00
40960;DHT22;27842;52.272;8.052;2023-04-08T02:10:37;8.70;80.10
40960;DHT22;27842;52.272;8.052;2023-04-08T02:13:02;8.70;80.20
40960;DHT22;27842;52.272;8.052;2023-04-08T02:15:33;8.70;80.10
40960;DHT22;27842;52.272;8.052;2023-04-08T02:18:08;8.70;80.70
40960;DHT22;27842;52.272;8.052;2023-04-08T02:20:43;8.70;80.40
40960;DHT22;27842;52.272;8.052;2023-04-08T02:23:31;8.70;80.60
40960;DHT22;27842;52.272;8.052;2023-04-08T02:25:59;8.70;80.60
40960;DHT22;27842;52.272;8.052;2023-04-08T02:28:26;8.80;80.50
40960;DHT22;27842;52.272;8.052;2023-04-08T02:30:53;8.80;80.70
40960;DHT22;27842;52.272;8.052;2023-04-08T02:33:21;8.70;80.70
40960;DHT22;27842;52.272;8.052;2023-04-08T02:35:48;8.70;81.00
40960;DHT22;27842;52.272;8.052;2023-04-08T02:38:15;8.70;81.20
40960;DHT22;27842;52.272;8.052;2023-04-08T02:40:40;8.70;81.30
40960;DHT22;27842;52.272;8.052;2023-04-08T02:43:06;8.70;81.50
40960;DHT22;27842;52.272;8.052;2023-04-08T02:45:37;8.70;81.70
40960;DHT22;27842;52.272;8.052;2023-04-08T02:48:03;8.60;81.80
40960;DHT22;27842;52.272;8.052;2023-04-08T02:50:30;8.60;82.10
40960;DHT22;27842;52.272;8.052;2023-04-08T02:52:55;8.60;82.50
40960;DHT22;27842;52.272;8.052;2023-04-08T02:55:21;8.60;82.70
40960;DHT22;27842;52.272;8.052;2023-04-08T02:57:47;8.60;82.70
40960;DHT22;27842;52.272;8.052;2023-04-08T03:00:13;8.60;82.80
40960;DHT22;27842;52.272;8.052;2023-04-08T03:02:39;8.60;83.00
40960;DHT22;27842;52.272;8.052;2023-04-08T03:05:05;8.60;83.20
40960;DHT22;27842;52.272;8.052;2023-04-08T03:07:32;8.60;83.30
40960;DHT22;27842;52.272;8.052;2023-04-08T03:09:58;8.70;84.20
40960;DHT22;27842;52.272;8.052;2023-04-08T03:12:23;8.60;83.70
40960;DHT22;27842;52.272;8.052;2023-04-08T03:14:52;8.70;84.10
40960;DHT22;27842;52.272;8.052;2023-04-08T03:17:17;8.60;84.10
40960;DHT22;27842;52.272;8.052;2023-04-08T03:19:43;8.60;84.80
40960;DHT22;27842;52.272;8.052;2023-04-08T03:22:08;8.60;84.50
40960;DHT22;27842;52.272;8.052;2023-04-08T03:24:35;8.60;85.00
40960;DHT22;27842;52.272;8.052;2023-04-08T03:27:01;8.60;84.90
40960;DHT22;27842;52.272;8.052;2023-04-08T03:29:26;8.50;85.00
40960;DHT22;27842;52.272;8.052;2023-04-08T03:31:52;8.50;85.00
40960;DHT22;27842;52.272;8.052;2023-04-08T03:34:18;8.50;85.40
40960;DHT22;27842;52.272;8.052;2023-04-08T03:36:43;8.50;85.70
40960;DHT22;27842;52.272;8.052;2023-04-08T03:39:09;8.60;85.90
40960;DHT22;27842;52.272;8.052;2023-04-08T03:41:35;8.60;86.00
40960;DHT22;27842;52.272;8.052;2023-04-08T03:44:01;8.50;86.50
40960;DHT22;27842;52.272;8.052;2023-04-08T03:46:26;8.50;86.40
40960;DHT22;27842;52.272;8.052;2023-04-08T03:48:52;8.40;87.20
40960;DHT22;27842;52.272;8.052;2023-04-08T03:51:18;8.40;86.60
40960;DHT22;27842;52.272;8.052;2023-04-08T03:53:43;8.40;86.60
40960;DHT22;27842;52.272;8.052;2023-04-08T03:56:09;8.40;86.90
40960;DHT22;27842;52.272;8.052;2023-04-08T03:58:34;8.40;86.70
40960;DHT22;27842;52.272;8.052;2023-04-08T04:01:00;8.30;87.00
40960;DHT22;27842;52.272;8.052;2023-04-08T04:03:26;8.40;87.20
40960;DHT22;27842;52.272;8.052;2023-04-08T04:05:51;8.30;87.20
40960;DHT22;27842;52.272;8.052;2023-04-08T04:08:17;8.30;87.20
40960;DHT22;27842;52.272;8.052;2023-04-08T04:10:43;8.30;87.40
40960;DHT22;27842;52.272;8.052;2023-04-08T04:13:08;8.40;87.60
40960;DHT22;27842;52.272;8.052;2023-04-08T04:15:37;8.40;87.70
40960;DHT22;27842;52.272;8.052;2023-04-08T04:18:04;8.40;87.90
40960;DHT22;27842;52.272;8.052;2023-04-08T04:20:30;8.30;88.00
40960;DHT22;27842;52.272;8.052;2023-04-08T04:22:55;8.30;88.10
40960;DHT22;27842;52.272;8.052;2023-04-08T04:25:21;8.40;88.20
40960;DHT22;27842;52.272;8.052;2023-04-08T04:27:47;8.30;88.40
40960;DHT22;27842;52.272;8.052;2023-04-08T04:30:13;8.30;88.70
40960;DHT22;27842;52.272;8.052;2023-04-08T04:32:40;8.30;88.50
40960;DHT22;27842;52.272;8.052;2023-04-08T04:35:08;8.30;88.80
40960;DHT22;27842;52.272;8.052;2023-04-08T04:37:33;8.30;88.70
40960;DHT22;27842;52.272;8.052;2023-04-08T04:39:59;8.30;88.90
40960;DHT22;27842;52.272;8.052;2023-04-08T04:42:25;8.20;89.10
40960;DHT22;27842;52.272;8.052;2023-04-08T04:44:50;8.20;89.10
40960;DHT22;27842;52.272;8.052;2023-04-08T04:47:16;8.20;89.10
40960;DHT22;27842;52.272;8.052;2023-04-08T04:49:43;8.20;89.20
40960;DHT22;27842;52.272;8.052;2023-04-08T04:52:10;8.20;89.30
40960;DHT22;27842;52.272;8.052;2023-04-08T04:54:35;8.20;89.60
40960;DHT22;27842;52.272;8.052;2023-04-08T04:57:01;8.20;90.10
40960;DHT22;27842;52.272;8.052;2023-04-08T04:59:26;8.20;89.40
40960;DHT22;27842;52.272;8.052;2023-04-08T05:01:52;8.20;90.20
40960;DHT22;27842;52.272;8.052;2023-04-08T05:04:18;8.20;89.60
40960;DHT22;27842;52.272;8.052;2023-04-08T05:06:43;8.10;89.70
40960;DHT22;27842;52.272;8.052;2023-04-08T05:09:09;8.10;89.80
40960;DHT22;27842;52.272;8.052;2023-04-08T05:11:34;8.00;90.80
40960;DHT22;27842;52.272;8.052;2023-04-08T05:14:00;8.00;90.30
40960;DHT22;27842;52.272;8.052;2023-04-08T05:16:25;8.10;90.10
40960;DHT22;27842;52.272;8.052;2023-04-08T05:18:51;8.00;90.10
40960;DHT22;27842;52.272;8.052;2023-04-08T05:21:16;8.10;90.10
40960;DHT22;27842;52.272;8.052;2023-04-08T05:23:42;8.10;90.10
40960;DHT22;27842;52.272;8.052;2023-04-08T05:26:08;8.10;90.10
40960;DHT22;27842;52.272;8.052;2023-04-08T05:28:34;8.00;90.10
40960;DHT22;27842;52.272;8.052;2023-04-08T05:30:59;8.00;90.20
40960;DHT22;27842;52.272;8.052;2023-04-08T05:33:25;8.00;90.20
40960;DHT22;27842;52.272;8.052;2023-04-08T05:35:50;8.00;90.30
40960;DHT22;27842;52.272;8.052;2023-04-08T05:38:17;8.00;90.30
40960;DHT22;27842;52.272;8.052;2023-04-08T05:40:43;8.10;90.30
40960;DHT22;27842;52.272;8.052;2023-04-08T05:43:08;8.10;90.40
40960;DHT22;27842;52.272;8.052;2023-04-08T05:45:34;8.10;90.40
40960;DHT22;27842;52.272;8.052;2023-04-08T05:48:00;8.00;90.40
40960;DHT22;27842;52.272;8.052;2023-04-08T05:50:25;8.00;90.50
40960;DHT22;27842;52.272;8.052;2023-04-08T05:52:51;8.10;90.50
40960;DHT22;27842;52.272;8.052;2023-04-08T05:55:17;8.10;90.50
40960;DHT22;27842;52.272;8.052;2023-04-08T05:57:42;8.10;90.50
40960;DHT22;27842;52.272;8.052;2023-04-08T06:00:09;8.00;90.50
40960;DHT22;27842;52.272;8.052;2023-04-08T06:02:35;8.00;90.90
40960;DHT22;27842;52.272;8.052;2023-04-08T06:05:04;8.10;90.70
40960;DHT22;27842;52.272;8.052;2023-04-08T06:07:31;8.10;90.70
40960;DHT22;27842;52.272;8.052;2023-04-08T06:09:57;8.10;90.80
40960;DHT22;27842;52.272;8.052;2023-04-08T06:12:22;8.00;90.90
40960;DHT22;27842;52.272;8.052;2023-04-08T06:14:53;8.00;90.90
40960;DHT22;27842;52.272;8.052;2023-04-08T06:17:18;8.10;91.00
40960;DHT22;27842;52.272;8.052;2023-04-08T06:19:44;8.00;91.10
40960;DHT22;27842;52.272;8.052;2023-04-08T06:22:09;8.00;91.10
40960;DHT22;27842;52.272;8.052;2023-04-08T06:24:35;8.00;91.30
40960;DHT22;27842;52.272;8.052;2023-04-08T06:27:01;7.90;91.30
40960;DHT22;27842;52.272;8.052;2023-04-08T06:29:27;8.00;91.20
40960;DHT22;27842;52.272;8.052;2023-04-08T06:31:54;8.00;91.40
40960;DHT22;27842;52.272;8.052;2023-04-08T06:34:20;8.00;91.40
40960;DHT22;27842;52.272;8.052;2023-04-08T06:36:45;8.00;91.40
40960;DHT22;27842;52.272;8.052;2023-04-08T06:39:12;8.00;91.50
40960;DHT22;27842;52.272;8.052;2023-04-08T06:41:39;7.90;91.60
40960;DHT22;27842;52.272;8.052;2023-04-08T06:44:05;7.90;91.60
40960;DHT22;27842;52.272;8.052;2023-04-08T06:46:31;8.00;91.70
40960;DHT22;27842;52.272;8.052;2023-04-08T06:48:56;7.90;91.60
40960;DHT22;27842;52.272;8.052;2023-04-08T06:51:22;7.90;91.90
40960;DHT22;27842;52.272;8.052;2023-04-08T06:53:48;7.80;91.80
40960;DHT22;27842;52.272;8.052;2023-04-08T06:56:13;8.00;92.00
40960;DHT22;27842;52.272;8.052;2023-04-08T06:58:39;8.00;92.40
40960;DHT22;27842;52.272;8.052;2023-04-08T07:01:04;7.90;92.00
40960;DHT22;27842;52.272;8.052;2023-04-08T07:03:30;8.00;92.10
40960;DHT22;27842;52.272;8.052;2023-04-08T07:05:56;7.90;92.10
40960;DHT22;27842;52.272;8.052;2023-04-08T07:08:21;7.90;92.20
40960;DHT22;27842;52.272;8.052;2023-04-08T07:10:47;7.90;92.30
40960;DHT22;27842;52.272;8.052;2023-04-08T07:13:13;7.90;92.30
40960;DHT22;27842;52.272;8.052;2023-04-08T07:15:40;7.90;92.30
40960;DHT22;27842;52.272;8.052;2023-04-08T07:18:08;7.90;92.30
40960;DHT22;27842;52.272;8.052;2023-04-08T07:20:34;7.90;92.70
40960;DHT22;27842;52.272;8.052;2023-04-08T07:23:02;8.00;92.50
40960;DHT22;27842;52.272;8.052;2023-04-08T07:25:28;8.00;93.10
40960;DHT22;27842;52.272;8.052;2023-04-08T07:27:53;7.90;92.60
40960;DHT22;27842;52.272;8.052;2023-04-08T07:30:19;7.90;93.00
40960;DHT22;27842;52.272;8.052;2023-04-08T07:32:45;8.00;92.60
40960;DHT22;27842;52.272;8.052;2023-04-08T07:35:11;8.00;92.60
40960;DHT22;27842;52.272;8.052;2023-04-08T07:37:36;8.00;92.90
40960;DHT22;27842;52.272;8.052;2023-04-08T07:40:02;8.00;92.70
40960;DHT22;27842;52.272;8.052;2023-04-08T07:42:28;8.10;92.60
40960;DHT22;27842;52.272;8.052;2023-04-08T07:44:53;8.10;92.70
40960;DHT22;27842;52.272;8.052;2023-04-08T07:47:19;8.10;92.80
40960;DHT22;27842;52.272;8.052;2023-04-08T07:49:45;8.10;92.90
40960;DHT22;27842;52.272;8.052;2023-04-08T07:52:11;8.10;92.90
40960;DHT22;27842;52.272;8.052;2023-04-08T07:54:36;8.10;92.90
40960;DHT22;27842;52.272;8.052;2023-04-08T07:57:02;8.10;93.00
40960;DHT22;27842;52.272;8.052;2023-04-08T07:59:28;8.20;93.10
40960;DHT22;27842;52.272;8.052;2023-04-08T08:01:54;8.20;93.10
40960;DHT22;27842;52.272;8.052;2023-04-08T08:04:19;8.20;93.10
40960;DHT22;27842;52.272;8.052;2023-04-08T08:06:46;8.10;93.10
40960;DHT22;27842;52.272;8.052;2023-04-08T08:09:14;8.10;93.30
40960;DHT22;27842;52.272;8.052;2023-04-08T08:11:40;8.10;93.30
40960;DHT22;27842;52.272;8.052;2023-04-08T08:14:05;8.20;93.20
40960;DHT22;27842;52.272;8.052;2023-04-08T08:16:32;8.20;93.20
40960;DHT22;27842;52.272;8.052;2023-04-08T08:18:58;8.30;93.20
40960;DHT22;27842;52.272;8.052;2023-04-08T08:21:23;8.30;93.20
40960;DHT22;27842;52.272;8.052;2023-04-08T08:23:51;8.30;93.20
40960;DHT22;27842;52.272;8.052;2023-04-08T08:26:17;8.30;93.20
40960;DHT22;27842;52.272;8.052;2023-04-08T08:28:43;8.30;93.30
40960;DHT22;27842;52.272;8.052;2023-04-08T08:31:08;8.30;93.50
40960;DHT22;27842;52.272;8.052;2023-04-08T08:33:34;8.30;93.40
40960;DHT22;27842;52.272;8.052;2023-04-08T08:36:00;8.30;93.50
40960;DHT22;27842;52.272;8.052;2023-04-08T08:38:26;8.30;93.50
40960;DHT22;27842;52.272;8.052;2023-04-08T08:40:56;8.30;93.50
40960;DHT22;27842;52.272;8.052;2023-04-08T08:43:23;8.30;93.50
40960;DHT22;27842;52.272;8.052;2023-04-08T08:45:48;8.40;93.50
40960;DHT22;27842;52.272;8.052;2023-04-08T08:48:17;8.40;93.50
40960;DHT22;27842;52.272;8.052;2023-04-08T08:50:43;8.40;93.60
40960;DHT22;27842;52.272;8.052;2023-04-08T08:53:09;8.40;93.60
40960;DHT22;27842;52.272;8.052;2023-04-08T08:55:35;8.50;93.60
40960;DHT22;27842;52.272;8.052;2023-04-08T08:58:02;8.50;93.60
40960;DHT22;27842;52.272;8.052;2023-04-08T09:00:41;8.50;93.60
40960;DHT22;27842;52.272;8.052;2023-04-08T09:03:17;8.40;93.80
40960;DHT22;27842;52.272;8.052;2023-04-08T09:05:57;8.50;93.80
40960;DHT22;27842;52.272;8.052;2023-04-08T09:10:48;8.50;93.80
40960;DHT22;27842;52.272;8.052;2023-04-08T09:13:14;8.50;94.30
40960;DHT22;27842;52.272;8.052;2023-04-08T09:16:10;8.40;94.10
40960;DHT22;27842;52.272;8.052;2023-04-08T09:18:37;8.40;94.60
40960;DHT22;27842;52.272;8.052;2023-04-08T09:21:04;8.40;94.30
40960;DHT22;27842;52.272;8.052;2023-04-08T09:26:10;8.40;94.20
40960;DHT22;27842;52.272;8.052;2023-04-08T09:28:37;8.40;94.30
40960;DHT22;27842;52.272;8.052;2023-04-08T09:31:20;8.50;94.40
40960;DHT22;27842;52.272;8.052;2023-04-08T09:33:51;8.50;94.40
40960;DHT22;27842;52.272;8.052;2023-04-08T09:36:17;8.60;94.30
40960;DHT22;27842;52.272;8.052;2023-04-08T09:38:43;8.60;94.30
40960;DHT22;27842;52.272;8.052;2023-04-08T09:41:14;8.70;94.30
40960;DHT22;27842;52.272;8.052;2023-04-08T09:43:47;8.70;94.20
40960;DHT22;27842;52.272;8.052;2023-04-08T09:46:15;8.70;94.20
40960;DHT22;27842;52.272;8.052;2023-04-08T09:49:26;8.80;94.30
40960;DHT22;27842;52.272;8.052;2023-04-08T09:52:31;8.80;94.60
40960;DHT22;27842;52.272;8.052;2023-04-08T09:55:02;8.80;94.30
40960;DHT22;27842;52.272;8.052;2023-04-08T09:57:43;8.80;94.20
40960;DHT22;27842;52.272;8.052;2023-04-08T10:00:13;8.80;94.50
40960;DHT22;27842;52.272;8.052;2023-04-08T10:05:30;8.80;94.30
40960;DHT22;27842;52.272;8.052;2023-04-08T10:07:56;8.80;94.20
40960;DHT22;27842;52.272;8.052;2023-04-08T10:10:22;8.90;94.20
40960;DHT22;27842;52.272;8.052;2023-04-08T10:12:48;8.80;94.80
40960;DHT22;27842;52.272;8.052;2023-04-08T10:15:30;8.80;94.40
40960;DHT22;27842;52.272;8.052;2023-04-08T10:23:04;8.90;94.30
40960;DHT22;27842;52.272;8.052;2023-04-08T10:28:44;8.90;94.30
40960;DHT22;27842;52.272;8.052;2023-04-08T10:30:46;9.00;94.60
40960;DHT22;27842;52.272;8.052;2023-04-08T10:33:16;8.90;94.40
40960;DHT22;27842;52.272;8.052;2023-04-08T10:38:25;8.90;94.50
40960;DHT22;27842;52.272;8.052;2023-04-08T10:40:50;9.00;94.80
40960;DHT22;27842;52.272;8.052;2023-04-08T10:43:16;9.00;94.50
40960;DHT22;27842;52.272;8.052;2023-04-08T10:45:43;9.00;94.60
40960;DHT22;27842;52.272;8.052;2023-04-08T10:48:23;9.00;94.50
40960;DHT22;27842;52.272;8.052;2023-04-08T10:53:32;9.00;94.60
40960;DHT22;27842;52.272;8.052;2023-04-08T10:58:30;9.20;94.60
40960;DHT22;27842;52.272;8.052;2023-04-08T11:01:02;9.10;94.50
40960;DHT22;27842;52.272;8.052;2023-04-08T11:03:31;9.20;94.50
40960;DHT22;27842;52.272;8.052;2023-04-08T11:05:59;9.20;94.70
40960;DHT22;27842;52.272;8.052;2023-04-08T11:08:32;9.10;94.70
40960;DHT22;27842;52.272;8.052;2023-04-08T11:11:02;9.20;94.70
40960;DHT22;27842;52.272;8.052;2023-04-08T11:13:29;9.20;94.60
40960;DHT22;27842;52.272;8.052;2023-04-08T11:15:57;9.20;94.60
40960;DHT22;27842;52.272;8.052;2023-04-08T11:18:23;9.30;94.60
40960;DHT22;27842;52.272;8.052;2023-04-08T11:20:52;9.30;94.80
40960;DHT22;27842;52.272;8.052;2023-04-08T11:23:18;9.40;94.60
40960;DHT22;27842;52.272;8.052;2023-04-08T11:25:45;9.40;94.60
40960;DHT22;27842;52.272;8.052;2023-04-08T11:28:12;9.50;94.60
40960;DHT22;27842;52.272;8.052;2023-04-08T11:30:39;9.50;94.70
40960;DHT22;27842;52.272;8.052;2023-04-08T11:33:08;9.50;94.70
40960;DHT22;27842;52.272;8.052;2023-04-08T11:35:33;9.50;94.70
40960;DHT22;27842;52.272;8.052;2023-04-08T11:38:01;9.60;94.70
40960;DHT22;27842;52.272;8.052;2023-04-08T11:40:28;9.60;94.70
40960;DHT22;27842;52.272;8.052;2023-04-08T11:42:54;9.60;95.10
40960;DHT22;27842;52.272;8.052;2023-04-08T11:45:20;9.60;94.90
40960;DHT22;27842;52.272;8.052;2023-04-08T11:47:46;9.60;94.70
40960;DHT22;27842;52.272;8.052;2023-04-08T11:50:21;9.70;94.90
40960;DHT22;27842;52.272;8.052;2023-04-08T11:52:48;9.60;94.80
40960;DHT22;27842;52.272;8.052;2023-04-08T11:55:25;9.70;95.00
40960;DHT22;27842;52.272;8.052;2023-04-08T11:57:51;9.70;94.80
40960;DHT22;27842;52.272;8.052;2023-04-08T12:00:18;9.70;94.70
40960;DHT22;27842;52.272;8.052;2023-04-08T12:02:44;9.70;94.90
40960;DHT22;27842;52.272;8.052;2023-04-08T12:05:10;9.80;94.80
40960;DHT22;27842;52.272;8.052;2023-04-08T12:07:36;9.80;94.80
40960;DHT22;27842;52.272;8.052;2023-04-08T12:10:01;9.80;95.10
40960;DHT22;27842;52.272;8.052;2023-04-08T12:12:27;9.80;95.00
40960;DHT22;27842;52.272;8.052;2023-04-08T12:14:53;9.80;95.00
40960;DHT22;27842;52.272;8.052;2023-04-08T12:17:19;9.80;95.00
40960;DHT22;27842;52.272;8.052;2023-04-08T12:19:44;9.80;95.00
40960;DHT22;27842;52.272;8.052;2023-04-08T12:22:10;9.80;95.10
40960;DHT22;27842;52.272;8.052;2023-04-08T12:24:36;9.80;95.10
40960;DHT22;27842;52.272;8.052;2023-04-08T12:27:01;9.80;95.00
40960;DHT22;27842;52.272;8.052;2023-04-08T12:29:29;9.90;95.00
40960;DHT22;27842;52.272;8.052;2023-04-08T12:31:54;9.90;95.00
40960;DHT22;27842;52.272;8.052;2023-04-08T12:34:20;9.90;95.30
40960;DHT22;27842;52.272;8.052;2023-04-08T12:36:46;9.90;95.00
40960;DHT22;27842;52.272;8.052;2023-04-08T12:39:13;9.90;95.00
40960;DHT22;27842;52.272;8.052;2023-04-08T12:41:39;9.90;95.30
40960;DHT22;27842;52.272;8.052;2023-04-08T12:44:04;9.90;95.10
40960;DHT22;27842;52.272;8.052;2023-04-08T12:46:31;9.90;95.00
40960;DHT22;27842;52.272;8.052;2023-04-08T12:48:56;10.00;95.00
40960;DHT22;27842;52.272;8.052;2023-04-08T12:51:22;10.00;95.00
40960;DHT22;27842;52.272;8.052;2023-04-08T12:53:49;10.00;95.00
40960;DHT22;27842;52.272;8.052;2023-04-08T12:56:14;10.00;94.90
40960;DHT22;27842;52.272;8.052;2023-04-08T12:58:40;10.00;95.00
40960;DHT22;27842;52.272;8.052;2023-04-08T13:01:06;10.10;95.00
40960;DHT22;27842;52.272;8.052;2023-04-08T13:03:31;10.10;95.20
40960;DHT22;27842;52.272;8.052;2023-04-08T13:05:57;10.10;95.20
40960;DHT22;27842;52.272;8.052;2023-04-08T13:08:24;10.10;95.20
40960;DHT22;27842;52.272;8.052;2023-04-08T13:10:49;10.10;95.20
40960;DHT22;27842;52.272;8.052;2023-04-08T13:13:15;10.10;95.00
40960;DHT22;27842;52.272;8.052;2023-04-08T13:15:41;10.10;95.20
40960;DHT22;27842;52.272;8.052;2023-04-08T13:18:06;10.20;95.20
40960;DHT22;27842;52.272;8.052;2023-04-08T13:20:32;10.20;95.10
40960;DHT22;27842;52.272;8.052;2023-04-08T13:22:58;10.30;94.90
40960;DHT22;27842;52.272;8.052;2023-04-08T13:25:25;10.30;95.00
40960;DHT22;27842;52.272;8.052;2023-04-08T13:27:50;10.30;94.90
40960;DHT22;27842;52.272;8.052;2023-04-08T13:30:16;10.30;94.90
40960;DHT22;27842;52.272;8.052;2023-04-08T13:32:41;10.30;94.80
40960;DHT22;27842;52.272;8.052;2023-04-08T13:35:07;10.30;95.00
40960;DHT22;27842;52.272;8.052;2023-04-08T13:37:33;10.40;94.90
40960;DHT22;27842;52.272;8.052;2023-04-08T13:39:58;10.50;95.00
40960;DHT22;27842;52.272;8.052;2023-04-08T13:42:24;10.50;95.10
40960;DHT22;27842;52.272;8.052;2023-04-08T13:44:50;10.40;95.10
40960;DHT22;27842;52.272;8.052;2023-04-08T13:47:18;10.50;95.10
40960;DHT22;27842;52.272;8.052;2023-04-08T13:49:44;10.40;95.10
40960;DHT22;27842;52.272;8.052;2023-04-08T13:52:10;10.40;95.10
40960;DHT22;27842;52.272;8.052;2023-04-08T13:54:36;10.40;95.10
40960;DHT22;27842;52.272;8.052;2023-04-08T13:57:01;10.40;95.10
40960;DHT22;27842;52.272;8.052;2023-04-08T13:59:27;10.40;95.10
40960;DHT22;27842;52.272;8.052;2023-04-08T14:01:52;10.40;95.20
40960;DHT22;27842;52.272;8.052;2023-04-08T14:04:20;10.40;95.10
40960;DHT22;27842;52.272;8.052;2023-04-08T14:06:46;10.40;95.10
40960;DHT22;27842;52.272;8.052;2023-04-08T14:09:12;10.40;95.10
40960;DHT22;27842;52.272;8.052;2023-04-08T14:11:37;10.40;95.10
40960;DHT22;27842;52.272;8.052;2023-04-08T14:14:03;10.40;95.20
40960;DHT22;27842;52.272;8.052;2023-04-08T14:16:29;10.40;95.20
40960;DHT22;27842;52.272;8.052;2023-04-08T14:18:59;10.40;95.20
40960;DHT22;27842;52.272;8.052;2023-04-08T14:21:24;10.40;95.20
40960;DHT22;27842;52.272;8.052;2023-04-08T14:23:51;10.30;95.30
40960;DHT22;27842;52.272;8.052;2023-04-08T14:26:17;10.40;95.20
40960;DHT22;27842;52.272;8.052;2023-04-08T14:28:42;10.40;95.20
40960;DHT22;27842;52.272;8.052;2023-04-08T14:31:08;10.40;95.30
40960;DHT22;27842;52.272;8.052;2023-04-08T14:33:33;10.30;95.50
40960;DHT22;27842;52.272;8.052;2023-04-08T14:35:59;10.30;95.40
40960;DHT22;27842;52.272;8.052;2023-04-08T14:38:25;10.40;95.40
40960;DHT22;27842;52.272;8.052;2023-04-08T14:40:51;10.40;95.40
40960;DHT22;27842;52.272;8.052;2023-04-08T14:43:16;10.30;95.80
40960;DHT22;27842;52.272;8.052;2023-04-08T14:45:42;10.30;95.70
40960;DHT22;27842;52.272;8.052;2023-04-08T14:48:09;10.30;95.50
40960;DHT22;27842;52.272;8.052;2023-04-08T14:50:35;10.30;95.50
40960;DHT22;27842;52.272;8.052;2023-04-08T14:53:00;10.30;95.50
40960;DHT22;27842;52.272;8.052;2023-04-08T14:55:26;10.40;95.50
40960;DHT22;27842;52.272;8.052;2023-04-08T14:57:54;10.40;95.70
40960;DHT22;27842;52.272;8.052;2023-04-08T15:00:20;10.40;95.50
40960;DHT22;27842;52.272;8.052;2023-04-08T15:02:45;10.40;95.50
40960;DHT22;27842;52.272;8.052;2023-04-08T15:05:11;10.40;95.50
40960;DHT22;27842;52.272;8.052;2023-04-08T15:07:36;10.40;95.70
40960;DHT22;27842;52.272;8.052;2023-04-08T15:10:02;10.40;95.50
40960;DHT22;27842;52.272;8.052;2023-04-08T15:12:28;10.40;95.50
40960;DHT22;27842;52.272;8.052;2023-04-08T15:14:53;10.40;95.60
40960;DHT22;27842;52.272;8.052;2023-04-08T15:17:21;10.40;95.60
40960;DHT22;27842;52.272;8.052;2023-04-08T15:19:47;10.30;95.70
40960;DHT22;27842;52.272;8.052;2023-04-08T15:22:13;10.40;95.70
40960;DHT22;27842;52.272;8.052;2023-04-08T15:24:38;10.30;95.60
40960;DHT22;27842;52.272;8.052;2023-04-08T15:27:04;10.40;95.50
40960;DHT22;27842;52.272;8.052;2023-04-08T15:29:29;10.40;95.60
40960;DHT22;27842;52.272;8.052;2023-04-08T15:31:55;10.40;95.60
40960;DHT22;27842;52.272;8.052;2023-04-08T15:34:20;10.40;95.60
40960;DHT22;27842;52.272;8.052;2023-04-08T15:36:46;10.50;95.70
40960;DHT22;27842;52.272;8.052;2023-04-08T15:39:12;10.40;95.70
40960;DHT22;27842;52.272;8.052;2023-04-08T15:41:37;10.40;95.70
40960;DHT22;27842;52.272;8.052;2023-04-08T15:44:03;10.40;95.80
40960;DHT22;27842;52.272;8.052;2023-04-08T15:46:29;10.40;95.70
40960;DHT22;27842;52.272;8.052;2023-04-08T15:48:54;10.40;95.70
40960;DHT22;27842;52.272;8.052;2023-04-08T15:51:20;10.40;95.60
40960;DHT22;27842;52.272;8.052;2023-04-08T15:53:46;10.40;95.70
40960;DHT22;27842;52.272;8.052;2023-04-08T15:56:15;10.50;95.70
40960;DHT22;27842;52.272;8.052;2023-04-08T15:58:43;10.40;95.70
40960;DHT22;27842;52.272;8.052;2023-04-08T16:01:08;10.40;95.70
40960;DHT22;27842;52.272;8.052;2023-04-08T16:03:34;10.40;95.70